sensor_id;sensor_type;location;lat;lon;timestamp;pressure;altitude;pressure_sealevel;temperature;humidity
13033;BME280;6583;42.632;23.298;2022-12-11T00:02:03;69445.84;;;-146.40;93.01
13033;BME280;6583;42.632;23.298;2022-12-11T00:04:29;69445.84;;;-146.40;93.01
13033;BME280;6583;42.632;23.298;2022-12-11T00:06:56;69445.84;;;-146.40;93.01
13033;BME280;6583;42.632;23.298;2022-12-11T00:09:23;69445.84;;;-146.40;93.01
13033;BME280;6583;42.632;23.298;2022-12-11T00:11:49;69445.84;;;-146.40;93.01
13033;BME280;6583;42.632;23.298;2022-12-11T00:14:16;69445.84;;;-146.40;93.01
13033;BME280;6583;42.632;23.298;2022-12-11T00:19:12;69445.84;;;-146.40;93.01
13033;BME280;6583;42.632;23.298;2022-12-11T00:21:39;63895.41;;;-146.40;93.00
13033;BME280;6583;42.632;23.298;2022-12-11T00:24:06;63895.41;;;-146.40;100.00
13033;BME280;6583;42.632;23.298;2022-12-11T00:26:33;69445.84;;;-146.40;93.01
13033;BME280;6583;42.632;23.298;2022-12-11T00:28:59;63895.41;;;-146.40;nan
13033;BME280;6583;42.632;23.298;2022-12-11T00:31:26;63895.41;;;-146.40;0.00
13033;BME280;6583;42.632;23.298;2022-12-11T00:33:54;63895.41;;;-146.40;0.00
13033;BME280;6583;42.632;23.298;2022-12-11T00:36:22;63895.41;;;-146.40;100.00
13033;BME280;6583;42.632;23.298;2022-12-11T00:38:49;63895.41;;;-146.40;100.00
13033;BME280;6583;42.632;23.298;2022-12-11T00:41:17;63895.41;;;-146.40;100.00
13033;BME280;6583;42.632;23.298;2022-12-11T00:43:44;63895.41;;;-146.40;100.00
13033;BME280;6583;42.632;23.298;2022-12-11T00:46:10;63895.41;;;-146.40;0.00
13033;BME280;6583;42.632;23.298;2022-12-11T00:48:37;63895.41;;;-146.40;100.00
13033;BME280;6583;42.632;23.298;2022-12-11T00:51:05;63895.41;;;-146.40;100.00
13033;BME280;6583;42.632;23.298;2022-12-11T00:53:32;63895.41;;;-146.40;0.00
13033;BME280;6583;42.632;23.298;2022-12-11T00:55:59;63895.41;;;-146.40;0.00
13033;BME280;6583;42.632;23.298;2022-12-11T00:58:26;63895.41;;;-146.40;100.00
13033;BME280;6583;42.632;23.298;2022-12-11T01:00:52;63895.41;;;-146.40;100.00
13033;BME280;6583;42.632;23.298;2022-12-11T01:03:19;63895.41;;;-146.40;100.00
13033;BME280;6583;42.632;23.298;2022-12-11T01:05:53;63895.41;;;-146.40;100.00
13033;BME280;6583;42.632;23.298;2022-12-11T01:08:21;63895.41;;;-146.40;100.00
13033;BME280;6583;42.632;23.298;2022-12-11T01:10:48;63895.41;;;-146.40;100.00
13033;BME280;6583;42.632;23.298;2022-12-11T01:13:14;63895.41;;;-146.40;100.00
13033;BME280;6583;42.632;23.298;2022-12-11T01:15:43;63895.41;;;-146.40;100.00
13033;BME280;6583;42.632;23.298;2022-12-11T01:18:11;69446.19;;;-146.40;93.01
13033;BME280;6583;42.632;23.298;2022-12-11T01:20:40;69445.84;;;-146.40;93.01
13033;BME280;6583;42.632;23.298;2022-12-11T01:23:08;69445.84;;;-146.40;93.01
13033;BME280;6583;42.632;23.298;2022-12-11T01:25:37;69446.19;;;-146.40;93.01
13033;BME280;6583;42.632;23.298;2022-12-11T01:28:04;69446.19;;;-146.40;93.01
13033;BME280;6583;42.632;23.298;2022-12-11T01:30:31;69446.19;;;-146.40;93.01
13033;BME280;6583;42.632;23.298;2022-12-11T01:32:58;69446.19;;;-146.40;93.01
13033;BME280;6583;42.632;23.298;2022-12-11T01:35:25;69446.19;;;-146.40;93.01
13033;BME280;6583;42.632;23.298;2022-12-11T01:37:52;69446.19;;;-146.40;93.01
13033;BME280;6583;42.632;23.298;2022-12-11T01:40:20;69446.19;;;-146.40;93.01
13033;BME280;6583;42.632;23.298;2022-12-11T01:42:48;69446.19;;;-146.40;93.01
13033;BME280;6583;42.632;23.298;2022-12-11T01:45:24;69446.19;;;-146.40;93.01
13033;BME280;6583;42.632;23.298;2022-12-11T01:47:54;69446.19;;;-146.40;93.01
13033;BME280;6583;42.632;23.298;2022-12-11T01:50:22;69446.19;;;-146.40;93.01
13033;BME280;6583;42.632;23.298;2022-12-11T01:52:49;69446.19;;;-146.40;93.01
13033;BME280;6583;42.632;23.298;2022-12-11T01:55:18;69446.19;;;-146.40;93.01
13033;BME280;6583;42.632;23.298;2022-12-11T01:57:49;69446.19;;;-146.40;93.01
13033;BME280;6583;42.632;23.298;2022-12-11T02:00:16;69446.19;;;-146.40;93.01
13033;BME280;6583;42.632;23.298;2022-12-11T02:02:43;69446.19;;;-146.40;93.01
13033;BME280;6583;42.632;23.298;2022-12-11T02:05:11;69446.19;;;-146.40;93.01
13033;BME280;6583;42.632;23.298;2022-12-11T02:07:40;69446.19;;;-146.40;93.01
13033;BME280;6583;42.632;23.298;2022-12-11T02:10:09;69445.84;;;-146.40;93.01
13033;BME280;6583;42.632;23.298;2022-12-11T02:12:42;69445.84;;;-146.40;93.01
13033;BME280;6583;42.632;23.298;2022-12-11T02:15:16;69445.84;;;-146.40;93.01
13033;BME280;6583;42.632;23.298;2022-12-11T02:17:47;69445.84;;;-146.40;93.01
13033;BME280;6583;42.632;23.298;2022-12-11T02:20:21;69446.19;;;-146.40;93.01
13033;BME280;6583;42.632;23.298;2022-12-11T02:23:02;69446.19;;;-146.40;93.01
13033;BME280;6583;42.632;23.298;2022-12-11T02:25:36;69446.19;;;-146.40;93.01
13033;BME280;6583;42.632;23.298;2022-12-11T02:28:17;69446.19;;;-146.40;93.01
13033;BME280;6583;42.632;23.298;2022-12-11T02:30:48;69446.19;;;-146.40;93.01
13033;BME280;6583;42.632;23.298;2022-12-11T02:33:22;69446.19;;;-146.40;93.01
13033;BME280;6583;42.632;23.298;2022-12-11T02:35:50;69446.19;;;-146.40;93.01
13033;BME280;6583;42.632;23.298;2022-12-11T02:38:22;69446.19;;;-146.40;93.01
13033;BME280;6583;42.632;23.298;2022-12-11T02:40:52;69446.19;;;-146.40;93.01
13033;BME280;6583;42.632;23.298;2022-12-11T02:43:22;68697.91;;;-146.40;79.68
13033;BME280;6583;42.632;23.298;2022-12-11T02:45:51;68699.94;;;-146.40;78.07
13033;BME280;6583;42.632;23.298;2022-12-11T02:48:20;68689.81;;;-146.40;76.42
13033;BME280;6583;42.632;23.298;2022-12-11T02:50:51;68685.78;;;-146.40;74.26
13033;BME280;6583;42.632;23.298;2022-12-11T02:53:24;68639.25;;;-146.40;70.02
13033;BME280;6583;42.632;23.298;2022-12-11T02:55:56;68639.25;;;-146.40;68.25
13033;BME280;6583;42.632;23.298;2022-12-11T02:58:29;68637.25;;;-146.40;67.46
13033;BME280;6583;42.632;23.298;2022-12-11T03:00:56;68623.09;;;-146.40;66.28
13033;BME280;6583;42.632;23.298;2022-12-11T03:03:23;68602.88;;;-146.40;66.89
13033;BME280;6583;42.632;23.298;2022-12-11T03:05:50;68592.75;;;-146.40;67.29
13033;BME280;6583;42.632;23.298;2022-12-11T03:08:17;68568.50;;;-146.40;65.61
13033;BME280;6583;42.632;23.298;2022-12-11T03:10:44;68542.19;;;-146.40;66.14
13033;BME280;6583;42.632;23.298;2022-12-11T03:13:12;68552.31;;;-146.40;66.12
13033;BME280;6583;42.632;23.298;2022-12-11T03:15:48;68536.13;;;-146.40;65.31
13033;BME280;6583;42.632;23.298;2022-12-11T03:18:28;68526.03;;;-146.40;63.51
13033;BME280;6583;42.632;23.298;2022-12-11T03:21:03;68528.06;;;-146.40;67.14
13033;BME280;6583;42.632;23.298;2022-12-11T03:23:33;68556.34;;;-146.40;65.61
13033;BME280;6583;42.632;23.298;2022-12-11T03:26:03;68534.13;;;-146.40;64.07
13033;BME280;6583;42.632;23.298;2022-12-11T03:28:36;68552.31;;;-146.40;64.97
13033;BME280;6583;42.632;23.298;2022-12-11T03:31:08;68548.28;;;-146.40;62.62
13033;BME280;6583;42.632;23.298;2022-12-11T03:33:38;68560.41;;;-146.40;63.53
13033;BME280;6583;42.632;23.298;2022-12-11T03:36:09;68582.66;;;-146.40;64.76
13033;BME280;6583;42.632;23.298;2022-12-11T03:38:41;68554.34;;;-146.40;61.96
13033;BME280;6583;42.632;23.298;2022-12-11T03:41:12;68554.34;;;-146.40;60.26
13033;BME280;6583;42.632;23.298;2022-12-11T03:43:40;68576.56;;;-146.40;61.00
13033;BME280;6583;42.632;23.298;2022-12-11T03:46:10;68554.34;;;-146.40;61.17
13033;BME280;6583;42.632;23.298;2022-12-11T03:48:41;68546.25;;;-146.40;61.07
13033;BME280;6583;42.632;23.298;2022-12-11T03:51:10;68540.19;;;-146.40;60.44
13033;BME280;6583;42.632;23.298;2022-12-11T03:53:37;68548.28;;;-146.40;60.07
13033;BME280;6583;42.632;23.298;2022-12-11T03:56:05;68566.47;;;-146.40;60.67
13033;BME280;6583;42.632;23.298;2022-12-11T03:58:33;68590.72;;;-146.40;60.57
13033;BME280;6583;42.632;23.298;2022-12-11T04:01:00;68604.88;;;-146.40;62.49
13033;BME280;6583;42.632;23.298;2022-12-11T04:03:28;68592.75;;;-146.40;63.10
13033;BME280;6583;42.632;23.298;2022-12-11T04:05:55;68598.81;;;-146.40;62.66
13033;BME280;6583;42.632;23.298;2022-12-11T04:08:22;68572.53;;;-146.40;62.28
13033;BME280;6583;42.632;23.298;2022-12-11T04:10:50;68588.72;;;-146.40;60.52
13033;BME280;6583;42.632;23.298;2022-12-11T04:13:38;68584.66;;;-146.40;60.93
13033;BME280;6583;42.632;23.298;2022-12-11T04:16:05;68617.03;;;-146.40;60.52
13033;BME280;6583;42.632;23.298;2022-12-11T04:18:33;68584.66;;;-146.40;56.50
13033;BME280;6583;42.632;23.298;2022-12-11T04:21:17;68588.72;;;-146.40;58.49
13033;BME280;6583;42.632;23.298;2022-12-11T04:24:01;68612.97;;;-146.40;58.08
13033;BME280;6583;42.632;23.298;2022-12-11T04:26:44;68633.19;;;-146.40;59.14
13033;BME280;6583;42.632;23.298;2022-12-11T04:29:11;68653.41;;;-146.40;58.54
13033;BME280;6583;42.632;23.298;2022-12-11T04:31:38;68649.38;;;-146.40;58.23
13033;BME280;6583;42.632;23.298;2022-12-11T04:34:06;68665.56;;;-146.40;58.38
13033;BME280;6583;42.632;23.298;2022-12-11T04:36:33;68667.56;;;-146.40;58.50
13033;BME280;6583;42.632;23.298;2022-12-11T04:39:00;68661.50;;;-146.40;57.30
13033;BME280;6583;42.632;23.298;2022-12-11T04:41:26;68677.69;;;-146.40;57.32
13033;BME280;6583;42.632;23.298;2022-12-11T04:43:55;68665.56;;;-146.40;57.87
13033;BME280;6583;42.632;23.298;2022-12-11T04:46:23;68673.63;;;-146.40;58.58
13033;BME280;6583;42.632;23.298;2022-12-11T04:48:50;68703.97;;;-146.40;57.25
13033;BME280;6583;42.632;23.298;2022-12-11T04:51:19;68701.94;;;-146.40;57.56
13033;BME280;6583;42.632;23.298;2022-12-11T04:53:46;68675.66;;;-146.40;57.11
13033;BME280;6583;42.632;23.298;2022-12-11T04:56:14;68712.06;;;-146.40;57.32
13033;BME280;6583;42.632;23.298;2022-12-11T04:58:42;68673.63;;;-146.40;55.83
13033;BME280;6583;42.632;23.298;2022-12-11T05:01:10;68681.72;;;-146.40;57.54
13033;BME280;6583;42.632;23.298;2022-12-11T05:03:37;68701.94;;;-146.40;57.38
13033;BME280;6583;42.632;23.298;2022-12-11T05:06:05;68689.81;;;-146.40;56.98
13033;BME280;6583;42.632;23.298;2022-12-11T05:08:34;68677.69;;;-146.40;57.10
13033;BME280;6583;42.632;23.298;2022-12-11T05:11:03;68665.56;;;-146.40;56.84
13033;BME280;6583;42.632;23.298;2022-12-11T05:13:30;68669.59;;;-146.40;57.85
13033;BME280;6583;42.632;23.298;2022-12-11T05:15:57;68671.63;;;-146.40;57.98
13033;BME280;6583;42.632;23.298;2022-12-11T05:18:25;68679.69;;;-146.40;57.71
13033;BME280;6583;42.632;23.298;2022-12-11T05:20:55;68673.63;;;-146.40;58.83
13033;BME280;6583;42.632;23.298;2022-12-11T05:23:22;68701.94;;;-146.40;59.73
13033;BME280;6583;42.632;23.298;2022-12-11T05:25:52;68693.84;;;-146.40;58.40
13033;BME280;6583;42.632;23.298;2022-12-11T05:28:19;68693.84;;;-146.40;58.47
13033;BME280;6583;42.632;23.298;2022-12-11T05:30:46;68679.69;;;-146.40;58.52
13033;BME280;6583;42.632;23.298;2022-12-11T05:33:13;68677.69;;;-146.40;58.02
13033;BME280;6583;42.632;23.298;2022-12-11T05:35:45;68689.81;;;-146.40;59.66
13033;BME280;6583;42.632;23.298;2022-12-11T05:38:12;68693.84;;;-146.40;59.45
13033;BME280;6583;42.632;23.298;2022-12-11T05:40:39;68667.56;;;-146.40;57.67
13033;BME280;6583;42.632;23.298;2022-12-11T05:43:07;68651.41;;;-146.40;57.98
13033;BME280;6583;42.632;23.298;2022-12-11T05:45:34;68647.34;;;-146.40;58.08
13033;BME280;6583;42.632;23.298;2022-12-11T05:48:00;68639.25;;;-146.40;58.06
13033;BME280;6583;42.632;23.298;2022-12-11T05:50:27;68647.34;;;-146.40;58.24
13033;BME280;6583;42.632;23.298;2022-12-11T05:52:54;68633.19;;;-146.40;56.53
13033;BME280;6583;42.632;23.298;2022-12-11T05:55:20;68625.09;;;-146.40;57.83
13033;BME280;6583;42.632;23.298;2022-12-11T05:57:47;68621.06;;;-146.40;57.36
13033;BME280;6583;42.632;23.298;2022-12-11T06:00:15;68617.03;;;-146.40;57.89
13033;BME280;6583;42.632;23.298;2022-12-11T06:02:42;68625.09;;;-146.40;57.37
13033;BME280;6583;42.632;23.298;2022-12-11T06:05:08;68612.97;;;-146.40;57.66
13033;BME280;6583;42.632;23.298;2022-12-11T06:07:35;68619.03;;;-146.40;56.41
13033;BME280;6583;42.632;23.298;2022-12-11T06:10:02;68617.03;;;-146.40;57.07
13033;BME280;6583;42.632;23.298;2022-12-11T06:12:30;68610.94;;;-146.40;57.67
13033;BME280;6583;42.632;23.298;2022-12-11T06:14:56;68617.03;;;-146.40;58.61
13033;BME280;6583;42.632;23.298;2022-12-11T06:17:24;68621.06;;;-146.40;57.47
13033;BME280;6583;42.632;23.298;2022-12-11T06:19:51;68657.47;;;-146.40;55.86
13033;BME280;6583;42.632;23.298;2022-12-11T06:22:18;68661.50;;;-146.40;56.04
13033;BME280;6583;42.632;23.298;2022-12-11T06:24:44;68671.63;;;-146.40;55.15
13033;BME280;6583;42.632;23.298;2022-12-11T06:27:12;68653.41;;;-146.40;55.61
13033;BME280;6583;42.632;23.298;2022-12-11T06:29:39;68655.44;;;-146.40;54.71
13033;BME280;6583;42.632;23.298;2022-12-11T06:32:06;68645.34;;;-146.40;56.14
13033;BME280;6583;42.632;23.298;2022-12-11T06:34:34;68645.34;;;-146.40;55.30
13033;BME280;6583;42.632;23.298;2022-12-11T06:37:00;68643.31;;;-146.40;54.58
13033;BME280;6583;42.632;23.298;2022-12-11T06:39:27;68637.25;;;-146.40;54.61
13033;BME280;6583;42.632;23.298;2022-12-11T06:41:53;68631.19;;;-146.40;53.89
13033;BME280;6583;42.632;23.298;2022-12-11T06:44:20;68641.28;;;-146.40;54.47
13033;BME280;6583;42.632;23.298;2022-12-11T06:46:47;68655.44;;;-146.40;55.47
13033;BME280;6583;42.632;23.298;2022-12-11T06:49:13;68673.63;;;-146.40;55.68
13033;BME280;6583;42.632;23.298;2022-12-11T06:51:41;68653.41;;;-146.40;55.80
13033;BME280;6583;42.632;23.298;2022-12-11T06:54:08;68641.28;;;-146.40;55.58
13033;BME280;6583;42.632;23.298;2022-12-11T06:56:35;68637.25;;;-146.40;56.00
13033;BME280;6583;42.632;23.298;2022-12-11T06:59:01;68657.47;;;-146.40;56.93
13033;BME280;6583;42.632;23.298;2022-12-11T07:01:28;68657.47;;;-146.40;57.73
13033;BME280;6583;42.632;23.298;2022-12-11T07:03:56;68653.41;;;-146.40;59.76
13033;BME280;6583;42.632;23.298;2022-12-11T07:06:24;68659.47;;;-146.40;58.39
13033;BME280;6583;42.632;23.298;2022-12-11T07:08:53;68681.72;;;-146.40;59.19
13033;BME280;6583;42.632;23.298;2022-12-11T07:11:20;68673.63;;;-146.40;60.06
13033;BME280;6583;42.632;23.298;2022-12-11T07:13:47;68677.69;;;-146.40;59.17
13033;BME280;6583;42.632;23.298;2022-12-11T07:16:15;68645.34;;;-146.40;58.29
13033;BME280;6583;42.632;23.298;2022-12-11T07:18:46;68681.72;;;-146.40;58.87
13033;BME280;6583;42.632;23.298;2022-12-11T07:21:14;68675.66;;;-146.40;58.31
13033;BME280;6583;42.632;23.298;2022-12-11T07:23:41;68687.78;;;-146.40;59.06
13033;BME280;6583;42.632;23.298;2022-12-11T07:26:11;68691.84;;;-146.40;59.21
13033;BME280;6583;42.632;23.298;2022-12-11T07:28:38;68697.91;;;-146.40;58.12
13033;BME280;6583;42.632;23.298;2022-12-11T07:31:05;68693.84;;;-146.40;58.38
13033;BME280;6583;42.632;23.298;2022-12-11T07:33:32;68689.81;;;-146.40;58.03
13033;BME280;6583;42.632;23.298;2022-12-11T07:36:00;68691.84;;;-146.40;57.44
13033;BME280;6583;42.632;23.298;2022-12-11T07:38:27;68685.78;;;-146.40;57.38
13033;BME280;6583;42.632;23.298;2022-12-11T07:40:54;68697.91;;;-146.40;56.53
13033;BME280;6583;42.632;23.298;2022-12-11T07:43:22;68661.50;;;-146.40;56.71
13033;BME280;6583;42.632;23.298;2022-12-11T07:45:48;68665.56;;;-146.40;57.20
13033;BME280;6583;42.632;23.298;2022-12-11T07:48:15;68685.78;;;-146.40;56.41
13033;BME280;6583;42.632;23.298;2022-12-11T07:50:42;68663.53;;;-146.40;56.01
13033;BME280;6583;42.632;23.298;2022-12-11T07:53:08;68671.63;;;-146.40;57.08
13033;BME280;6583;42.632;23.298;2022-12-11T07:55:35;68677.69;;;-146.40;57.73
13033;BME280;6583;42.632;23.298;2022-12-11T07:58:03;68681.72;;;-146.40;57.85
13033;BME280;6583;42.632;23.298;2022-12-11T08:00:31;68649.38;;;-146.40;56.71
13033;BME280;6583;42.632;23.298;2022-12-11T08:02:58;68685.78;;;-146.40;57.13
13033;BME280;6583;42.632;23.298;2022-12-11T08:05:25;68679.69;;;-146.40;57.13
13033;BME280;6583;42.632;23.298;2022-12-11T08:07:52;68687.78;;;-146.40;57.08
13033;BME280;6583;42.632;23.298;2022-12-11T08:10:18;68685.78;;;-146.40;59.68
13033;BME280;6583;42.632;23.298;2022-12-11T08:12:45;68669.59;;;-146.40;59.21
13033;BME280;6583;42.632;23.298;2022-12-11T08:15:12;68687.78;;;-146.40;60.38
13033;BME280;6583;42.632;23.298;2022-12-11T08:17:40;68685.78;;;-146.40;63.27
13033;BME280;6583;42.632;23.298;2022-12-11T08:20:07;68706.00;;;-146.40;59.70
13033;BME280;6583;42.632;23.298;2022-12-11T08:22:35;68673.63;;;-146.40;60.16
13033;BME280;6583;42.632;23.298;2022-12-11T08:25:02;68671.63;;;-146.40;60.83
13033;BME280;6583;42.632;23.298;2022-12-11T08:27:28;68687.78;;;-146.40;61.01
13033;BME280;6583;42.632;23.298;2022-12-11T08:29:55;68685.78;;;-146.40;60.26
13033;BME280;6583;42.632;23.298;2022-12-11T08:32:22;68699.94;;;-146.40;62.68
13033;BME280;6583;42.632;23.298;2022-12-11T08:34:51;68701.94;;;-146.40;60.88
13033;BME280;6583;42.632;23.298;2022-12-11T08:37:17;68708.00;;;-146.40;62.44
13033;BME280;6583;42.632;23.298;2022-12-11T08:39:44;68695.88;;;-146.40;62.22
13033;BME280;6583;42.632;23.298;2022-12-11T08:42:11;68710.03;;;-146.40;64.38
13033;BME280;6583;42.632;23.298;2022-12-11T08:44:37;68687.78;;;-146.40;65.37
13033;BME280;6583;42.632;23.298;2022-12-11T08:47:04;68693.84;;;-146.40;64.90
13033;BME280;6583;42.632;23.298;2022-12-11T08:49:31;68699.94;;;-146.40;66.67
13033;BME280;6583;42.632;23.298;2022-12-11T08:51:59;68708.00;;;-146.40;68.13
13033;BME280;6583;42.632;23.298;2022-12-11T08:54:25;68708.00;;;-146.40;66.85
13033;BME280;6583;42.632;23.298;2022-12-11T08:56:52;68722.16;;;-146.40;69.94
13033;BME280;6583;42.632;23.298;2022-12-11T08:59:19;68730.25;;;-146.40;72.53
13033;BME280;6583;42.632;23.298;2022-12-11T09:01:45;68712.06;;;-146.40;71.79
13033;BME280;6583;42.632;23.298;2022-12-11T09:04:12;68724.19;;;-146.40;69.60
13033;BME280;6583;42.632;23.298;2022-12-11T09:06:39;68722.16;;;-146.40;71.69
13033;BME280;6583;42.632;23.298;2022-12-11T09:09:07;68722.16;;;-146.40;68.79
13033;BME280;6583;42.632;23.298;2022-12-11T09:11:35;68730.25;;;-146.40;69.15
13033;BME280;6583;42.632;23.298;2022-12-11T09:14:03;68732.28;;;-146.40;70.14
13033;BME280;6583;42.632;23.298;2022-12-11T09:16:29;68730.25;;;-146.40;70.65
13033;BME280;6583;42.632;23.298;2022-12-11T09:18:57;68724.19;;;-146.40;70.61
13033;BME280;6583;42.632;23.298;2022-12-11T09:21:26;68742.38;;;-146.40;65.45
13033;BME280;6583;42.632;23.298;2022-12-11T09:23:54;68734.31;;;-146.40;67.25
13033;BME280;6583;42.632;23.298;2022-12-11T09:26:23;68722.16;;;-146.40;67.80
13033;BME280;6583;42.632;23.298;2022-12-11T09:28:51;68730.25;;;-146.40;67.51
13033;BME280;6583;42.632;23.298;2022-12-11T09:31:20;68726.22;;;-146.40;70.60
13033;BME280;6583;42.632;23.298;2022-12-11T09:33:48;68710.03;;;-146.40;68.60
13033;BME280;6583;42.632;23.298;2022-12-11T09:36:14;68697.91;;;-146.40;63.67
13033;BME280;6583;42.632;23.298;2022-12-11T09:38:41;68701.94;;;-146.40;62.39
13033;BME280;6583;42.632;23.298;2022-12-11T09:44:17;68679.69;;;-146.40;60.74
13033;BME280;6583;42.632;23.298;2022-12-11T09:46:45;68651.41;;;-146.40;61.17
13033;BME280;6583;42.632;23.298;2022-12-11T09:49:20;68647.34;;;-146.40;61.64
13033;BME280;6583;42.632;23.298;2022-12-11T09:51:51;68649.38;;;-146.40;60.16
13033;BME280;6583;42.632;23.298;2022-12-11T09:54:19;68641.28;;;-146.40;64.58
13033;BME280;6583;42.632;23.298;2022-12-11T09:56:51;68649.38;;;-146.40;64.76
13033;BME280;6583;42.632;23.298;2022-12-11T09:59:28;68649.38;;;-146.40;60.52
13033;BME280;6583;42.632;23.298;2022-12-11T10:02:02;68647.34;;;-146.40;59.66
13033;BME280;6583;42.632;23.298;2022-12-11T10:04:39;68661.50;;;-146.40;63.52
13033;BME280;6583;42.632;23.298;2022-12-11T10:07:15;68655.44;;;-146.40;59.83
13033;BME280;6583;42.632;23.298;2022-12-11T10:09:48;68653.41;;;-146.40;58.48
13033;BME280;6583;42.632;23.298;2022-12-11T10:12:33;68621.06;;;-146.40;61.42
13033;BME280;6583;42.632;23.298;2022-12-11T10:15:19;68639.25;;;-146.40;63.42
13033;BME280;6583;42.632;23.298;2022-12-11T10:17:50;68645.34;;;-146.40;63.27
13033;BME280;6583;42.632;23.298;2022-12-11T10:20:23;68627.13;;;-146.40;60.54
13033;BME280;6583;42.632;23.298;2022-12-11T10:22:51;68637.25;;;-146.40;62.22
13033;BME280;6583;42.632;23.298;2022-12-11T10:25:21;68635.22;;;-146.40;64.61
13033;BME280;6583;42.632;23.298;2022-12-11T10:27:50;68649.38;;;-146.40;62.86
13033;BME280;6583;42.632;23.298;2022-12-11T10:30:20;68637.25;;;-146.40;64.36
13033;BME280;6583;42.632;23.298;2022-12-11T10:32:53;68627.13;;;-146.40;64.83
13033;BME280;6583;42.632;23.298;2022-12-11T10:35:30;68659.47;;;-146.40;70.70
13033;BME280;6583;42.632;23.298;2022-12-11T10:38:05;68687.78;;;-146.40;65.24
13033;BME280;6583;42.632;23.298;2022-12-11T10:40:37;68693.84;;;-146.40;71.51
13033;BME280;6583;42.632;23.298;2022-12-11T10:43:05;68683.75;;;-146.40;69.73
13033;BME280;6583;42.632;23.298;2022-12-11T10:45:33;68681.72;;;-146.40;72.88
13033;BME280;6583;42.632;23.298;2022-12-11T10:48:04;68701.94;;;-146.40;74.30
13033;BME280;6583;42.632;23.298;2022-12-11T10:50:31;68710.03;;;-146.40;74.48
13033;BME280;6583;42.632;23.298;2022-12-11T10:52:59;68691.84;;;-146.40;74.77
13033;BME280;6583;42.632;23.298;2022-12-11T10:55:28;68699.94;;;-146.40;66.75
13033;BME280;6583;42.632;23.298;2022-12-11T10:57:58;68701.94;;;-146.40;63.43
13033;BME280;6583;42.632;23.298;2022-12-11T11:00:30;68708.00;;;-146.40;66.46
13033;BME280;6583;42.632;23.298;2022-12-11T11:03:00;68697.91;;;-146.40;66.88
13033;BME280;6583;42.632;23.298;2022-12-11T11:05:30;68691.84;;;-146.40;66.15
13033;BME280;6583;42.632;23.298;2022-12-11T11:08:03;68687.78;;;-146.40;68.70
13033;BME280;6583;42.632;23.298;2022-12-11T11:10:29;68681.72;;;-146.40;69.08
13033;BME280;6583;42.632;23.298;2022-12-11T11:13:00;68691.84;;;-146.40;69.83
13033;BME280;6583;42.632;23.298;2022-12-11T11:15:28;68697.91;;;-146.40;67.42
13033;BME280;6583;42.632;23.298;2022-12-11T11:17:57;68697.91;;;-146.40;71.97
13033;BME280;6583;42.632;23.298;2022-12-11T11:20:29;68693.84;;;-146.40;76.68
13033;BME280;6583;42.632;23.298;2022-12-11T11:22:58;68697.91;;;-146.40;80.16
13033;BME280;6583;42.632;23.298;2022-12-11T11:25:27;68706.00;;;-146.40;78.90
13033;BME280;6583;42.632;23.298;2022-12-11T11:27:56;68701.94;;;-146.40;77.03
13033;BME280;6583;42.632;23.298;2022-12-11T11:30:24;68693.84;;;-146.40;81.50
13033;BME280;6583;42.632;23.298;2022-12-11T11:32:53;68689.81;;;-146.40;80.75
13033;BME280;6583;42.632;23.298;2022-12-11T11:35:23;68685.78;;;-146.40;78.95
13033;BME280;6583;42.632;23.298;2022-12-11T11:38:00;68681.72;;;-146.40;76.02
13033;BME280;6583;42.632;23.298;2022-12-11T11:40:29;68695.88;;;-146.40;75.82
13033;BME280;6583;42.632;23.298;2022-12-11T11:43:06;68726.22;;;-146.40;70.93
13033;BME280;6583;42.632;23.298;2022-12-11T11:45:39;68693.84;;;-146.40;71.66
13033;BME280;6583;42.632;23.298;2022-12-11T11:48:23;68722.16;;;-146.40;73.38
13033;BME280;6583;42.632;23.298;2022-12-11T11:50:53;68722.16;;;-146.40;73.71
13033;BME280;6583;42.632;23.298;2022-12-11T11:53:27;68714.09;;;-146.40;74.67
13033;BME280;6583;42.632;23.298;2022-12-11T11:56:02;68712.06;;;-146.40;74.73
13033;BME280;6583;42.632;23.298;2022-12-11T11:58:38;68734.31;;;-146.40;76.03
13033;BME280;6583;42.632;23.298;2022-12-11T12:01:12;68734.31;;;-146.40;77.60
13033;BME280;6583;42.632;23.298;2022-12-11T12:03:39;68716.09;;;-146.40;79.56
13033;BME280;6583;42.632;23.298;2022-12-11T12:06:11;68718.13;;;-146.40;78.68
13033;BME280;6583;42.632;23.298;2022-12-11T12:08:45;68742.38;;;-146.40;78.95
13033;BME280;6583;42.632;23.298;2022-12-11T12:11:25;68762.63;;;-146.40;83.13
13033;BME280;6583;42.632;23.298;2022-12-11T12:14:05;68797.00;;;-146.40;87.79
13033;BME280;6583;42.632;23.298;2022-12-11T12:16:40;68790.94;;;-146.40;87.64
13033;BME280;6583;42.632;23.298;2022-12-11T12:19:14;68803.06;;;-146.40;77.20
13033;BME280;6583;42.632;23.298;2022-12-11T12:21:47;68803.06;;;-146.40;81.58
13033;BME280;6583;42.632;23.298;2022-12-11T12:24:24;68786.88;;;-146.40;83.16
13033;BME280;6583;42.632;23.298;2022-12-11T12:26:58;68790.94;;;-146.40;85.68
13033;BME280;6583;42.632;23.298;2022-12-11T12:29:35;68799.00;;;-146.40;88.21
13033;BME280;6583;42.632;23.298;2022-12-11T12:32:08;68801.03;;;-146.40;88.72
13033;BME280;6583;42.632;23.298;2022-12-11T12:34:50;68819.22;;;-146.40;89.42
13033;BME280;6583;42.632;23.298;2022-12-11T12:37:26;68835.41;;;-146.40;89.36
13033;BME280;6583;42.632;23.298;2022-12-11T12:40:11;68835.41;;;-146.40;90.04
13033;BME280;6583;42.632;23.298;2022-12-11T12:42:44;68831.38;;;-146.40;90.83
13033;BME280;6583;42.632;23.298;2022-12-11T12:45:21;68823.28;;;-146.40;91.05
13033;BME280;6583;42.632;23.298;2022-12-11T12:47:51;68847.53;;;-146.40;90.04
13033;BME280;6583;42.632;23.298;2022-12-11T12:50:21;68869.78;;;-146.40;86.97
13033;BME280;6583;42.632;23.298;2022-12-11T12:52:49;68956.75;;;-146.40;84.20
13033;BME280;6583;42.632;23.298;2022-12-11T12:55:21;69001.25;;;-146.40;82.85
13033;BME280;6583;42.632;23.298;2022-12-11T12:57:51;68997.19;;;-146.40;83.62